Time;durP1;ratioP1;P1;durP2;ratioP2;P2;SDS_P1;SDS_P2;PMS_P1;PMS_P2;Temp;Humidity;BMP_temperature;BMP_pressure;BME280_temperature;BME280_humidity;BME280_pressure;Samples;Min_cycle;Max_cycle;Signal;HPM_P1;HPM_P2
2022/01/01 00:01:43;;;;;;;14.38;3.53;;;;;;;11.72;80.42;100406.78;4960374;28;20055;-53
2022/01/01 00:04:10;;;;;;;13.15;3.70;;;;;;;11.72;81.78;100401.59;4962409;28;20050;-53
2022/01/01 00:06:36;;;;;;;17.33;4.68;;;;;;;11.73;81.77;100405.06;4962621;28;20101;-57
2022/01/01 00:09:03;;;;;;;13.10;3.53;;;;;;;11.70;80.86;100399.03;4965929;28;20051;-53
2022/01/01 00:11:30;;;;;;;15.73;3.63;;;;;;;11.72;81.15;100400.75;4962067;28;20706;-56
2022/01/01 00:13:56;;;;;;;15.90;4.03;;;;;;;11.71;80.99;100394.69;4961206;28;20051;-57
2022/01/01 00:16:28;;;;;;;14.63;4.82;;;;;;;11.70;81.42;100382.59;4960594;28;20043;-56
2022/01/01 00:18:55;;;;;;;19.67;4.72;;;;;;;11.68;81.96;100384.31;4963627;28;20062;-57
2022/01/01 00:21:21;;;;;;;16.27;4.55;;;;;;;11.67;83.00;100398.16;4963708;28;20101;-58
2022/01/01 00:23:48;;;;;;;15.38;4.63;;;;;;;11.69;82.25;100386.06;4961255;28;20058;-54
2022/01/01 00:26:15;;;;;;;15.57;4.80;;;;;;;11.66;82.87;100375.69;4962814;28;20046;-55
2022/01/01 00:28:41;;;;;;;21.05;4.53;;;;;;;11.67;82.27;100383.47;4963232;28;20054;-54
2022/01/01 00:31:08;;;;;;;18.35;5.15;;;;;;;11.68;82.92;100394.69;4966007;28;20046;-53
2022/01/01 00:33:35;;;;;;;16.63;4.97;;;;;;;11.71;81.98;100386.91;4969555;28;20109;-57
2022/01/01 00:36:02;;;;;;;15.57;4.80;;;;;;;11.68;82.68;100384.31;4962687;28;20051;-57
2022/01/01 00:38:29;;;;;;;19.90;4.80;;;;;;;11.74;83.09;100392.09;4961765;28;20067;-56
2022/01/01 00:40:56;;;;;;;23.48;5.28;;;;;;;11.74;82.56;100399.88;4962994;28;20050;-59
2022/01/01 00:43:24;;;;;;;17.80;6.00;;;;;;;11.78;82.06;100396.41;4959557;28;20066;-55
2022/01/01 00:45:51;;;;;;;13.63;4.18;;;;;;;11.79;83.05;100398.13;4961848;28;20058;-54
2022/01/01 00:48:18;;;;;;;23.33;5.47;;;;;;;11.82;83.29;100392.06;4959380;28;20204;-54
2022/01/01 00:50:44;;;;;;;16.42;4.25;;;;;;;11.80;82.69;100366.13;4962026;28;20105;-52
2022/01/01 00:53:11;;;;;;;18.60;5.22;;;;;;;11.84;82.24;100369.56;4962631;28;20063;-60
2022/01/01 00:55:38;;;;;;;18.42;5.97;;;;;;;11.84;82.71;100361.78;4961667;28;20054;-53
2022/01/01 00:58:05;;;;;;;11.93;4.85;;;;;;;11.84;82.90;100361.78;4960891;28;20051;-53
2022/01/01 01:00:32;;;;;;;17.70;4.43;;;;;;;11.88;83.28;100354.84;4961750;28;20391;-57
2022/01/01 01:02:59;;;;;;;15.23;4.97;;;;;;;11.90;83.07;100355.72;4964124;28;20050;-53
2022/01/01 01:05:26;;;;;;;14.27;4.85;;;;;;;11.94;83.70;100366.09;4965398;28;20065;-55
2022/01/01 01:07:53;;;;;;;14.75;4.70;;;;;;;11.95;82.16;100364.34;4966694;28;20047;-57
2022/01/01 01:10:20;;;;;;;12.88;3.75;;;;;;;11.98;83.08;100369.53;4962668;28;20127;-54
2022/01/01 01:12:48;;;;;;;13.48;5.63;;;;;;;12.01;82.33;100369.53;4962894;28;20047;-58
2022/01/01 01:15:17;;;;;;;13.68;5.22;;;;;;;12.06;83.05;100359.16;4968511;28;20114;-59
2022/01/01 01:17:46;;;;;;;11.10;4.22;;;;;;;12.05;81.69;100358.25;4966648;28;20387;-52
2022/01/01 01:20:14;;;;;;;16.10;5.30;;;;;;;12.05;81.84;100363.44;4962854;28;20047;-53
2022/01/01 01:22:41;;;;;;;13.10;5.40;;;;;;;12.06;83.20;100360.00;4964980;28;20053;-53
2022/01/01 01:25:09;;;;;;;12.98;4.30;;;;;;;12.06;82.33;100367.78;4966382;28;20051;-56
2022/01/01 01:27:37;;;;;;;14.20;4.07;;;;;;;12.07;82.63;100359.16;4968687;28;20101;-56
2022/01/01 01:30:08;;;;;;;14.23;4.20;;;;;;;12.08;82.16;100370.38;4963332;28;20043;-53
2022/01/01 01:32:36;;;;;;;10.18;3.88;;;;;;;12.07;82.34;100363.47;4968229;28;20077;-54
2022/01/01 01:35:05;;;;;;;14.98;4.80;;;;;;;12.07;83.16;100355.69;4964537;28;20039;-56
2022/01/01 01:37:32;;;;;;;13.32;5.07;;;;;;;12.07;81.73;100346.19;4965734;28;20059;-55
2022/01/01 01:39:59;;;;;;;10.98;4.72;;;;;;;12.07;81.92;100346.19;4966148;28;20118;-52
2022/01/01 01:42:28;;;;;;;13.93;4.18;;;;;;;12.11;81.75;100351.34;4966265;28;20046;-54
2022/01/01 01:44:56;;;;;;;14.43;4.60;;;;;;;12.09;82.62;100340.94;4964442;28;20338;-55
2022/01/01 01:47:29;;;;;;;12.05;4.93;;;;;;;12.08;82.04;100342.72;4966915;28;20097;-53
2022/01/01 01:49:58;;;;;;;12.50;3.92;;;;;;;12.11;83.04;100341.81;4965182;28;20054;-60
2022/01/01 01:52:30;;;;;;;12.02;4.72;;;;;;;12.06;81.51;100344.44;4967869;28;20055;-58
2022/01/01 01:54:57;;;;;;;16.60;4.15;;;;;;;12.10;82.06;100347.03;4966090;28;20059;-56
2022/01/01 01:57:25;;;;;;;12.43;4.45;;;;;;;12.11;81.86;100340.94;4966101;28;20054;-53
2022/01/01 01:59:52;;;;;;;11.88;4.57;;;;;;;12.10;82.30;100342.72;4966452;28;20081;-54
2022/01/01 02:02:19;;;;;;;13.02;4.47;;;;;;;12.10;82.41;100344.44;4972460;28;20098;-60
2022/01/01 02:04:46;;;;;;;12.25;4.28;;;;;;;12.11;82.19;100340.94;4963608;28;20109;-56
2022/01/01 02:07:13;;;;;;;13.07;4.72;;;;;;;12.11;81.88;100340.94;4971936;28;20376;-53
2022/01/01 02:09:40;;;;;;;9.38;3.58;;;;;;;12.16;82.69;100341.81;4969595;28;20050;-55
2022/01/01 02:12:08;;;;;;;12.30;3.53;;;;;;;12.13;81.65;100345.25;4969425;28;20042;-55
2022/01/01 02:15:08;;;;;;;13.73;4.72;;;;;;;12.12;81.90;100350.50;4970610;28;20116;-55
2022/01/01 02:17:30;;;;;;;12.98;4.78;;;;;;;12.16;82.13;100341.81;4954720;28;20121;-50
2022/01/01 02:20:00;;;;;;;10.30;4.22;;;;;;;12.18;81.12;100346.13;4971513;28;20054;-51
2022/01/01 02:22:34;;;;;;;;;;;;;;;12.07;81.48;100356.56;4967707;28;20059;-53
2022/01/01 02:25:01;;;;;;;14.55;5.53;;;;;;;12.18;81.36;100358.22;4963452;28;20370;-53
2022/01/01 02:27:27;;;;;;;11.57;4.13;;;;;;;12.20;82.19;100361.69;4969568;28;20043;-57
2022/01/01 02:29:54;;;;;;;14.32;4.68;;;;;;;12.18;80.93;100353.03;4963275;28;20043;-58
2022/01/01 02:32:21;;;;;;;18.85;4.53;;;;;;;12.18;81.06;100353.91;4968502;28;20046;-56
2022/01/01 02:34:47;;;;;;;13.80;5.40;;;;;;;12.20;80.95;100356.50;4968513;28;20491;-54
2022/01/01 02:37:14;;;;;;;16.23;4.28;;;;;;;12.19;80.92;100349.56;4968092;28;20066;-56
2022/01/01 02:39:40;;;;;;;13.43;4.07;;;;;;;12.17;81.08;100352.19;4967561;28;20046;-57
2022/01/01 02:42:10;;;;;;;17.77;5.60;;;;;;;12.17;81.97;100353.91;4966502;28;20463;-54
2022/01/01 02:44:37;;;;;;;13.73;4.55;;;;;;;12.19;81.54;100359.94;4966923;28;20050;-54
2022/01/01 02:47:03;;;;;;;12.38;4.53;;;;;;;12.19;82.07;100357.34;4968115;28;20053;-57
2022/01/01 02:49:30;;;;;;;12.23;4.93;;;;;;;12.20;81.83;100348.72;4969209;28;20059;-59
2022/01/01 02:51:56;;;;;;;11.75;4.53;;;;;;;12.20;81.99;100346.13;4963048;28;20043;-58
2022/01/01 02:54:23;;;;;;;12.90;4.30;;;;;;;12.20;81.52;100357.34;4966350;28;20093;-54
2022/01/01 02:56:50;;;;;;;11.10;4.45;;;;;;;12.17;81.35;100356.50;4965905;28;20070;-56
2022/01/01 02:59:17;;;;;;;11.50;5.15;;;;;;;12.20;80.67;100352.16;4970536;28;20051;-54
2022/01/01 03:01:43;;;;;;;13.10;4.72;;;;;;;12.18;80.49;100345.25;4969334;28;20054;-54
2022/01/01 03:04:10;;;;;;;18.38;5.18;;;;;;;12.18;81.70;100342.66;4968192;28;20518;-57
2022/01/01 03:06:37;;;;;;;12.63;4.38;;;;;;;12.17;81.61;100340.94;4963109;28;20379;-53
2022/01/01 03:09:03;;;;;;;14.20;5.35;;;;;;;12.19;80.81;100352.16;4967259;28;20050;-53
2022/01/01 03:11:30;;;;;;;16.10;4.60;;;;;;;12.17;80.58;100340.94;4968908;28;20046;-53
2022/01/01 03:13:57;;;;;;;19.00;5.45;;;;;;;12.16;80.86;100324.47;4969714;28;20059;-56
2022/01/01 03:16:24;;;;;;;14.23;5.28;;;;;;;12.15;80.51;100327.09;4965291;28;20538;-56
2022/01/01 03:18:52;;;;;;;12.50;4.28;;;;;;;12.17;79.87;100331.44;4968862;28;20086;-55
2022/01/01 03:21:18;;;;;;;15.40;4.65;;;;;;;12.19;80.27;100328.78;4965904;28;20097;-57
2022/01/01 03:23:45;;;;;;;16.40;5.22;;;;;;;12.18;80.56;100321.88;4966700;28;20057;-56
2022/01/01 03:26:12;;;;;;;13.02;4.80;;;;;;;12.18;80.46;100322.75;4966854;28;20047;-57
2022/01/01 03:28:38;;;;;;;15.57;4.68;;;;;;;12.19;80.13;100323.59;4964235;28;20094;-57
2022/01/01 03:31:05;;;;;;;14.27;4.22;;;;;;;12.17;80.47;100315.84;4965872;28;20059;-53
2022/01/01 03:33:31;;;;;;;13.43;4.75;;;;;;;12.15;81.09;100312.38;4968177;28;20055;-55
2022/01/01 03:35:58;;;;;;;16.95;5.72;;;;;;;12.16;80.90;100323.63;4966252;28;20043;-52
2022/01/01 03:38:24;;;;;;;15.27;5.07;;;;;;;12.14;79.88;100320.16;4962469;28;20055;-58
2022/01/01 03:40:51;;;;;;;15.27;5.75;;;;;;;12.14;80.03;100307.19;4969319;28;20054;-54
2022/01/01 03:43:18;;;;;;;13.48;4.20;;;;;;;12.13;80.40;100310.66;4961177;28;20101;-55
2022/01/01 03:45:44;;;;;;;12.20;3.47;;;;;;;12.13;80.06;100301.13;4963362;28;20097;-51
2022/01/01 03:48:11;;;;;;;14.82;4.72;;;;;;;12.12;80.98;100295.97;4968168;28;20065;-58
2022/01/01 03:50:38;;;;;;;12.95;4.65;;;;;;;12.07;80.81;100302.03;4965570;28;20051;-55
2022/01/01 03:53:04;;;;;;;11.10;4.57;;;;;;;12.06;79.52;100292.50;4963131;28;20109;-56
2022/01/01 03:55:31;;;;;;;17.95;5.68;;;;;;;12.03;80.63;100291.63;4968580;28;20046;-56
2022/01/01 03:57:57;;;;;;;13.30;4.80;;;;;;;12.00;80.03;100292.53;4961383;28;20055;-55
2022/01/01 04:00:24;;;;;;;13.20;4.22;;;;;;;11.97;79.88;100287.34;4965236;28;20042;-57
2022/01/01 04:02:51;;;;;;;12.57;4.15;;;;;;;11.97;79.69;100292.53;4964244;28;20059;-54
2022/01/01 04:05:18;;;;;;;15.18;4.72;;;;;;;11.94;80.16;100288.22;4965202;28;20058;-56
2022/01/01 04:07:44;;;;;;;19.73;5.38;;;;;;;11.95;79.58;100283.88;4967857;28;20097;-56
2022/01/01 04:10:11;;;;;;;13.80;5.22;;;;;;;11.91;80.44;100283.03;4963480;28;20070;-57
2022/01/01 04:12:38;;;;;;;15.65;6.00;;;;;;;11.91;79.88;100279.56;4965758;28;20093;-56
2022/01/01 04:15:05;;;;;;;14.27;4.75;;;;;;;11.91;80.14;100271.78;4966521;28;20059;-53
2022/01/01 04:17:36;;;;;;;21.25;5.78;;;;;;;11.90;79.94;100270.06;4964108;28;20051;-57
2022/01/01 04:20:04;;;;;;;17.10;5.07;;;;;;;11.87;81.00;100259.69;4961180;28;20109;-54
2022/01/01 04:22:30;;;;;;;16.55;5.00;;;;;;;11.83;80.30;100249.31;4964196;28;20471;-53
2022/01/01 04:24:57;;;;;;;12.50;5.05;;;;;;;11.81;79.39;100245.88;4964993;28;20569;-54
2022/01/01 04:27:25;;;;;;;16.33;6.43;;;;;;;11.80;79.84;100238.97;4968218;28;20145;-54
2022/01/01 04:29:52;;;;;;;19.73;5.95;;;;;;;11.73;81.09;100232.09;4961213;28;20055;-56
2022/01/01 04:32:18;;;;;;;19.80;5.80;;;;;;;11.74;79.50;100233.81;4963424;28;20055;-54
2022/01/01 04:34:45;;;;;;;18.23;5.25;;;;;;;11.74;80.17;100220.84;4966329;28;20094;-56
2022/01/01 04:37:13;;;;;;;18.30;6.30;;;;;;;11.72;80.01;100209.59;4963655;28;20481;-58
2022/01/01 04:39:40;;;;;;;22.40;5.93;;;;;;;11.71;79.27;100226.03;4963191;28;20491;-55
2022/01/01 04:42:07;;;;;;;14.40;4.45;;;;;;;11.69;79.99;100209.63;4962264;28;20079;-56
2022/01/01 04:44:34;;;;;;;16.35;4.70;;;;;;;11.69;80.88;100220.00;4963647;28;20098;-57
2022/01/01 04:47:01;;;;;;;15.65;4.75;;;;;;;11.71;80.48;100207.88;4964866;28;20054;-59
2022/01/01 04:49:27;;;;;;;16.92;5.45;;;;;;;11.69;79.61;100220.84;4963760;28;20039;-54
2022/01/01 04:51:54;;;;;;;10.77;4.97;;;;;;;11.71;80.54;100207.88;4962280;28;20106;-59
2022/01/01 04:54:20;;;;;;;15.88;5.20;;;;;;;11.71;79.11;100207.88;4965398;28;20058;-53
2022/01/01 04:56:48;;;;;;;14.40;5.10;;;;;;;11.69;80.30;100204.44;4962949;28;20098;-53
2022/01/01 04:59:16;;;;;;;18.85;5.97;;;;;;;11.70;80.69;100201.84;4963318;28;20109;-55
2022/01/01 05:01:43;;;;;;;17.42;5.68;;;;;;;11.69;79.56;100188.88;4965793;28;20070;-52
2022/01/01 05:04:11;;;;;;;15.55;4.85;;;;;;;11.69;80.39;100183.69;4968076;28;20050;-52
2022/01/01 05:06:40;;;;;;;22.80;5.93;;;;;;;11.69;80.29;100178.50;4965525;28;20050;-58
2022/01/01 05:09:07;;;;;;;17.88;4.90;;;;;;;11.69;80.44;100168.94;4966229;28;20114;-52
2022/01/01 05:11:34;;;;;;;14.77;4.10;;;;;;;11.69;80.36;100168.09;4963726;28;20046;-56
2022/01/01 05:14:00;;;;;;;14.40;4.15;;;;;;;11.73;79.55;100189.69;4965601;28;20101;-54
2022/01/01 05:16:27;;;;;;;10.85;4.32;;;;;;;11.70;79.36;100198.38;4962982;28;20059;-54
2022/01/01 05:18:53;;;;;;;18.38;4.45;;;;;;;11.76;80.12;100177.56;4963797;28;20101;-58
2022/01/01 05:21:20;;;;;;;14.25;5.05;;;;;;;11.73;79.29;100171.53;4968926;28;20101;-56
2022/01/01 05:23:47;;;;;;;13.27;4.25;;;;;;;11.70;80.39;100178.47;4963966;28;20054;-53
2022/01/01 05:26:14;;;;;;;14.55;4.55;;;;;;;11.70;80.12;100177.59;4964207;28;20640;-53
2022/01/01 05:28:40;;;;;;;12.88;4.38;;;;;;;11.70;79.45;100188.88;4964356;28;20059;-57
2022/01/01 05:31:07;;;;;;;15.23;4.80;;;;;;;11.67;78.80;100181.09;4966546;28;20368;-54
2022/01/01 05:33:33;;;;;;;16.40;5.90;;;;;;;11.68;78.67;100187.13;4969469;28;20094;-57
2022/01/01 05:36:00;;;;;;;15.02;4.90;;;;;;;11.66;79.31;100186.28;4971754;28;20160;-56
2022/01/01 05:38:27;;;;;;;20.25;5.38;;;;;;;11.64;79.00;100190.59;4970547;28;20352;-51
2022/01/01 05:40:54;;;;;;;18.67;5.40;;;;;;;11.61;78.90;100175.91;4969050;28;20050;-55
2022/01/01 05:43:21;;;;;;;15.60;4.65;;;;;;;11.57;79.68;100180.28;4969483;28;20051;-55
2022/01/01 05:45:47;;;;;;;11.18;4.53;;;;;;;11.57;78.83;100158.66;4967733;28;20538;-56
2022/01/01 05:48:14;;;;;;;19.13;4.97;;;;;;;11.53;79.86;100152.63;4966818;28;20128;-57
2022/01/01 05:50:41;;;;;;;9.25;3.33;;;;;;;11.53;79.03;100131.88;4968908;28;20054;-56
2022/01/01 05:53:08;;;;;;;17.67;4.93;;;;;;;11.52;79.17;100124.94;4969171;28;20043;-53
2022/01/01 05:55:35;;;;;;;15.85;5.38;;;;;;;11.49;78.79;100127.56;4968568;28;20566;-53
2022/01/01 05:58:02;;;;;;;14.43;4.28;;;;;;;11.50;80.09;100120.63;4966245;28;20086;-57
2022/01/01 06:00:29;;;;;;;20.80;5.00;;;;;;;11.52;78.99;100117.16;4967620;28;20050;-57
2022/01/01 06:02:58;;;;;;;13.25;4.07;;;;;;;11.52;79.84;100108.53;4968426;28;20050;-53
2022/01/01 06:05:26;;;;;;;13.75;3.70;;;;;;;11.49;78.70;100093.84;4960914;28;20126;-57
2022/01/01 06:07:55;;;;;;;14.13;4.38;;;;;;;11.50;78.74;100112.84;4950205;28;20055;-54
2022/01/01 06:10:23;;;;;;;10.70;4.10;;;;;;;11.45;79.75;100099.91;4947902;28;20051;-52
2022/01/01 06:12:49;;;;;;;16.23;4.45;;;;;;;11.48;78.72;100097.28;4948261;28;20055;-53
2022/01/01 06:15:16;;;;;;;14.02;4.72;;;;;;;11.45;79.09;100086.94;4962929;28;20051;-55
2022/01/01 06:17:43;;;;;;;12.93;4.05;;;;;;;11.46;78.79;100080.91;4967190;28;20050;-52
2022/01/01 06:20:10;;;;;;;13.85;4.72;;;;;;;11.44;79.32;100080.03;4969183;28;20043;-54
2022/01/01 06:22:57;;;;;;;12.13;4.05;;;;;;;11.45;78.87;100058.41;4967890;28;20178;-54
2022/01/01 06:25:23;;;;;;;15.45;4.03;;;;;;;11.43;79.78;100078.31;4967564;28;20105;-56
2022/01/01 06:27:50;;;;;;;11.32;3.38;;;;;;;11.42;78.38;100066.22;4966177;28;20062;-55
2022/01/01 06:30:16;;;;;;;12.20;4.10;;;;;;;11.41;79.06;100059.28;4966223;28;20055;-56
2022/01/01 06:32:43;;;;;;;12.82;3.08;;;;;;;11.37;78.17;100066.25;4970025;28;20046;-59
2022/01/01 06:35:10;;;;;;;15.38;3.33;;;;;;;11.36;78.45;100067.13;4966556;28;20050;-56
2022/01/01 06:37:36;;;;;;;10.48;3.80;;;;;;;11.40;79.33;100078.31;4967585;28;20046;-57
2022/01/01 06:40:03;;;;;;;11.32;5.10;;;;;;;11.42;78.14;100071.41;4968857;28;20055;-57
2022/01/01 06:42:30;;;;;;;15.77;4.18;;;;;;;11.42;79.42;100071.41;4965439;28;20062;-53
2022/01/01 06:44:56;;;;;;;13.05;3.25;;;;;;;11.40;78.48;100068.84;4964534;28;20102;-53
2022/01/01 06:47:25;;;;;;;9.00;3.30;;;;;;;11.42;79.42;100074.00;4968234;28;20047;-54
2022/01/01 06:49:51;;;;;;;10.50;3.88;;;;;;;11.41;79.00;100074.84;4971502;28;20055;-58
2022/01/01 06:52:18;;;;;;;11.00;3.00;;;;;;;11.42;78.91;100061.03;4965856;28;20050;-55
2022/01/01 06:54:44;;;;;;;12.13;3.30;;;;;;;11.41;78.36;100064.47;4968631;28;20051;-54
2022/01/01 06:57:11;;;;;;;13.50;3.13;;;;;;;11.44;79.02;100069.66;4963264;28;20109;-52
2022/01/01 06:59:37;;;;;;;14.90;3.15;;;;;;;11.43;78.03;100068.81;4957889;28;20110;-59
2022/01/01 07:02:04;;;;;;;14.70;4.28;;;;;;;11.44;77.93;100064.47;4953960;28;20051;-57
2022/01/01 07:04:31;;;;;;;11.45;3.38;;;;;;;11.46;77.95;100052.38;4963165;28;20102;-54
2022/01/01 07:06:57;;;;;;;10.48;3.20;;;;;;;11.43;77.71;100067.94;4967842;28;20542;-52
2022/01/01 07:09:24;;;;;;;9.27;3.17;;;;;;;11.45;78.77;100071.38;4964351;28;20050;-56
2022/01/01 07:11:50;;;;;;;15.32;3.22;;;;;;;11.42;78.17;100071.41;4969023;28;20097;-57
2022/01/01 07:14:21;;;;;;;11.68;3.08;;;;;;;11.45;78.94;100066.19;4966597;28;20054;-59
2022/01/01 07:16:47;;;;;;;7.95;2.85;;;;;;;11.45;77.72;100071.38;4967845;28;20043;-54
2022/01/01 07:19:14;;;;;;;8.95;2.92;;;;;;;11.46;77.49;100075.72;4967794;28;20059;-53
2022/01/01 07:21:41;;;;;;;9.63;2.92;;;;;;;11.42;78.87;100067.06;4962837;28;20055;-56
2022/01/01 07:24:07;;;;;;;9.93;3.45;;;;;;;11.44;78.17;100059.28;4971084;28;20050;-56
2022/01/01 07:26:34;;;;;;;8.68;3.50;;;;;;;11.43;77.92;100057.56;4963451;28;20117;-51
2022/01/01 07:29:01;;;;;;;9.80;3.58;;;;;;;11.43;78.50;100061.03;4964656;28;20050;-54
2022/01/01 07:31:28;;;;;;;6.38;2.40;;;;;;;11.42;77.74;100050.66;4965447;28;20059;-57
2022/01/01 07:33:54;;;;;;;6.82;2.45;;;;;;;11.41;78.57;100048.94;4972181;28;20051;-57
2022/01/01 07:36:21;;;;;;;9.40;3.95;;;;;;;11.40;78.59;100062.78;4964539;28;20059;-57
2022/01/01 07:38:48;;;;;;;10.52;2.92;;;;;;;11.41;77.48;100051.53;4965135;28;20047;-53
2022/01/01 07:41:14;;;;;;;7.40;2.67;;;;;;;11.38;78.36;100064.53;4964728;28;20776;-54
2022/01/01 07:43:41;;;;;;;8.30;2.60;;;;;;;11.37;78.46;100042.03;4965601;28;20047;-50
2022/01/01 07:46:07;;;;;;;9.68;2.88;;;;;;;11.39;77.56;100055.88;4966270;28;20046;-57
2022/01/01 07:48:34;;;;;;;10.40;2.85;;;;;;;11.38;78.42;100049.81;4962879;28;20074;-55
2022/01/01 07:51:00;;;;;;;12.82;3.55;;;;;;;11.36;78.60;100042.91;4965603;28;20051;-57
2022/01/01 07:53:27;;;;;;;6.38;2.45;;;;;;;11.35;78.02;100038.59;4962847;28;20051;-54
2022/01/01 07:55:54;;;;;;;8.07;3.60;;;;;;;11.37;77.75;100034.25;4967214;28;20098;-53
2022/01/01 07:58:20;;;;;;;11.93;3.22;;;;;;;11.34;78.55;100047.25;4965446;28;20474;-58
2022/01/01 08:00:47;;;;;;;6.90;2.83;;;;;;;11.36;77.25;100036.00;4961614;28;20101;-54
2022/01/01 08:03:13;;;;;;;12.30;2.63;;;;;;;11.34;77.63;100036.91;4961428;28;20043;-54
2022/01/01 08:05:41;;;;;;;10.35;3.47;;;;;;;11.38;77.49;100048.97;4962840;28;20508;-57
2022/01/01 08:08:07;;;;;;;8.10;3.17;;;;;;;11.37;77.67;100045.50;4962872;28;20055;-56
2022/01/01 08:10:37;;;;;;;12.02;2.88;;;;;;;11.37;77.60;100036.84;4962126;28;20058;-56
2022/01/01 08:13:05;;;;;;;6.43;2.35;;;;;;;11.36;78.05;100020.44;4967610;28;20476;-53
2022/01/01 08:15:32;;;;;;;8.88;3.38;;;;;;;11.35;77.92;100012.69;4966243;28;20102;-56
2022/01/01 08:17:59;;;;;;;9.05;3.30;;;;;;;11.36;77.83;100014.38;4963051;28;20065;-58
2022/01/01 08:20:36;;;;;;;8.40;2.10;;;;;;;11.37;77.35;100008.31;4965142;28;20563;-53
2022/01/01 08:23:03;;;;;;;10.35;3.35;;;;;;;11.38;77.93;99999.69;4964395;28;20105;-55
2022/01/01 08:25:29;;;;;;;9.00;3.15;;;;;;;11.34;77.88;100005.78;4967574;28;20114;-55
2022/01/01 08:27:56;;;;;;;10.27;2.83;;;;;;;11.38;76.95;100007.47;4968423;28;20105;-55
2022/01/01 08:30:22;;;;;;;8.57;3.13;;;;;;;11.40;78.02;100000.53;4965367;28;20050;-57
2022/01/01 08:32:49;;;;;;;7.35;2.58;;;;;;;11.39;77.28;100009.19;4960970;28;20133;-53
2022/01/01 08:35:16;;;;;;;11.20;3.15;;;;;;;11.39;77.14;100010.03;4960746;28;20105;-52
2022/01/01 08:37:43;;;;;;;8.73;3.03;;;;;;;11.41;77.40;100012.63;4964783;28;20679;-56
2022/01/01 08:40:10;;;;;;;12.32;3.50;;;;;;;11.40;77.30;100018.69;4963742;28;20094;-54
2022/01/01 08:42:37;;;;;;;11.73;2.72;;;;;;;11.43;76.64;100013.47;4959592;28;20047;-55
2022/01/01 08:45:04;;;;;;;9.45;2.45;;;;;;;11.43;76.89;100019.53;4959087;28;20570;-57
2022/01/01 08:47:30;;;;;;;8.50;3.65;;;;;;;11.46;77.20;100020.38;4965711;28;20491;-55
2022/01/01 08:49:57;;;;;;;8.07;2.85;;;;;;;11.47;76.46;100038.53;4963349;28;20129;-56
2022/01/01 08:52:24;;;;;;;9.65;3.05;;;;;;;11.49;76.36;100036.78;4963717;28;20050;-56
2022/01/01 08:54:55;;;;;;;12.90;3.33;;;;;;;11.52;77.05;100038.50;4959286;28;20046;-56
2022/01/01 08:57:24;;;;;;;9.68;2.58;;;;;;;11.54;76.52;100053.19;4961568;28;20055;-57
2022/01/01 08:59:51;;;;;;;9.15;2.38;;;;;;;11.59;76.28;100052.28;4961099;28;20055;-57
2022/01/01 09:02:18;;;;;;;14.63;3.35;;;;;;;11.63;76.93;100048.78;4962988;28;20209;-55
2022/01/01 09:04:45;;;;;;;10.88;2.60;;;;;;;11.66;76.19;100048.78;4962334;28;20431;-54
2022/01/01 09:07:13;;;;;;;12.13;3.13;;;;;;;11.73;75.87;100045.28;4965543;28;20051;-55
2022/01/01 09:09:40;;;;;;;11.25;3.25;;;;;;;11.79;75.68;100029.63;4965790;28;20093;-52
2022/01/01 09:12:08;;;;;;;11.82;2.70;;;;;;;11.88;75.15;100018.31;4962013;28;20047;-58
2022/01/01 09:14:34;;;;;;;9.63;2.42;;;;;;;12.12;75.19;100031.16;4960354;28;20050;-58
2022/01/01 09:17:02;;;;;;;14.20;3.42;;;;;;;12.49;74.34;100019.50;4959500;28;20105;-57
2022/01/01 09:19:28;;;;;;;13.35;3.15;;;;;;;12.88;73.53;100006.03;4978689;28;20050;-54
2022/01/01 09:21:55;;;;;;;10.05;3.30;;;;;;;13.14;72.59;99991.84;4961894;28;20042;-57
2022/01/01 09:24:22;;;;;;;7.95;2.15;;;;;;;13.45;70.84;99987.03;4962034;28;20043;-57
2022/01/01 09:26:49;;;;;;;8.90;2.70;;;;;;;13.72;70.02;99995.28;4962563;28;20080;-54
2022/01/01 09:29:20;;;;;;;13.25;3.10;;;;;;;13.72;69.36;99989.25;4963765;28;20051;-57
2022/01/01 09:31:47;;;;;;;13.10;3.00;;;;;;;13.80;69.43;99997.78;4963153;28;20047;-55
2022/01/01 09:34:14;;;;;;;8.63;3.22;;;;;;;13.64;69.82;99993.72;4966243;28;20062;-58
2022/01/01 09:36:40;;;;;;;13.15;2.72;;;;;;;13.41;69.10;99994.91;4962218;28;20554;-53
2022/01/01 09:39:08;;;;;;;12.75;3.33;;;;;;;13.32;70.37;99994.19;4966804;28;20048;-54
2022/01/01 09:41:40;;;;;;;10.40;2.55;;;;;;;13.57;69.67;99988.59;4962444;28;20047;-58
2022/01/01 09:44:13;;;;;;;9.68;3.35;;;;;;;14.04;68.93;100011.25;4956923;28;20055;-57
2022/01/01 09:46:41;;;;;;;9.25;2.65;;;;;;;14.43;67.82;100004.47;4958346;28;20102;-57
2022/01/01 09:49:08;;;;;;;9.13;2.50;;;;;;;14.80;67.96;100001.16;4959244;28;20604;-56
2022/01/01 09:51:35;;;;;;;11.68;2.70;;;;;;;15.15;66.45;100007.38;4966301;28;20046;-57
2022/01/01 09:54:02;;;;;;;7.75;2.15;;;;;;;15.37;65.24;100017.28;4955018;28;20438;-55
2022/01/01 09:56:29;;;;;;;7.43;2.38;;;;;;;15.52;64.96;100012.63;4964128;28;20047;-54
2022/01/01 09:58:55;;;;;;;9.95;2.30;;;;;;;15.69;65.34;100022.66;4962388;28;20106;-52
2022/01/01 10:01:22;;;;;;;13.13;3.20;;;;;;;15.87;64.52;100005.66;4963004;28;20138;-52
2022/01/01 10:03:51;;;;;;;10.98;2.28;;;;;;;16.13;62.63;100026.81;4960709;28;20140;-54
2022/01/01 10:06:21;;;;;;;7.05;2.60;;;;;;;16.44;63.91;100016.41;4959905;28;20169;-54
2022/01/01 10:08:49;;;;;;;;;;;;;;;16.46;60.80;100005.91;4960963;28;20042;-56
2022/01/01 10:11:17;;;;;;;7.93;2.05;;;;;;;16.78;61.30;100011.09;4960758;28;19973;-55
2022/01/01 10:13:45;;;;;;;6.05;1.83;;;;;;;17.01;61.45;100014.78;4966124;28;20043;-56
2022/01/01 10:16:14;;;;;;;9.02;1.95;;;;;;;17.13;60.08;100024.94;4965869;28;20042;-55
2022/01/01 10:18:43;;;;;;;9.40;2.10;;;;;;;17.19;58.98;100029.97;4963546;28;20502;-57
2022/01/01 10:21:14;;;;;;;10.40;2.00;;;;;;;17.35;59.54;100024.25;4969533;28;20054;-55
2022/01/01 10:23:45;;;;;;;8.23;1.95;;;;;;;17.42;59.63;100025.78;4966712;28;20078;-57
2022/01/01 10:29:15;;;;;;;12.10;2.50;;;;;;;16.43;58.98;100030.38;4955458;28;20093;-54
2022/01/01 10:32:04;;;;;;;6.88;2.20;;;;;;;16.38;60.01;100032.22;4968312;28;20130;-57
2022/01/01 10:34:43;;;;;;;11.65;3.25;;;;;;;16.33;59.94;100044.59;4967312;28;20109;-55
2022/01/01 10:37:30;;;;;;;5.53;2.28;;;;;;;16.02;60.18;100048.00;4964016;28;20468;-57
2022/01/01 10:39:58;;;;;;;8.32;2.38;;;;;;;15.70;61.60;100044.41;4972308;28;20043;-59
2022/01/01 10:42:25;;;;;;;12.68;2.28;;;;;;;15.49;62.36;100041.38;4966806;28;20090;-56
2022/01/01 10:44:53;;;;;;;10.10;2.47;;;;;;;15.18;62.34;100031.66;4961172;28;20105;-53
2022/01/01 10:47:33;;;;;;;9.25;2.55;;;;;;;14.94;63.38;100033.91;4966247;28;20379;-55
2022/01/01 10:50:14;;;;;;;11.48;1.70;;;;;;;14.77;63.98;100029.91;4965578;28;20574;-57
2022/01/01 10:52:45;;;;;;;7.72;2.28;;;;;;;14.58;65.00;100027.63;4961720;28;20051;-54
2022/01/01 10:55:15;;;;;;;13.35;2.65;;;;;;;14.38;65.58;100008.03;4966076;28;20043;-56
2022/01/01 10:57:53;;;;;;;10.35;2.47;;;;;;;14.26;66.23;100018.69;4967545;28;20043;-54
2022/01/01 11:00:22;;;;;;;10.65;2.28;;;;;;;14.03;66.87;100014.75;4963064;28;20443;-56
2022/01/01 11:02:54;;;;;;;11.95;2.65;;;;;;;13.93;67.45;100029.69;4969425;28;20094;-59
2022/01/01 11:05:32;;;;;;;14.48;2.67;;;;;;;13.76;68.56;100019.53;4967770;28;20046;-56
2022/01/01 11:08:00;;;;;;;14.77;2.88;;;;;;;13.62;68.45;100041.44;4962419;28;20105;-54
2022/01/01 11:10:27;;;;;;;9.55;2.72;;;;;;;13.49;70.11;100035.59;4972590;28;20475;-56
2022/01/01 11:12:55;;;;;;;12.80;2.55;;;;;;;13.45;69.98;100033.00;4963308;28;20098;-51
2022/01/01 11:15:22;;;;;;;11.80;2.58;;;;;;;13.30;70.81;100028.88;4970903;28;20155;-53
2022/01/01 11:17:49;;;;;;;10.95;2.58;;;;;;;13.21;71.45;100016.88;4970054;28;21584;-58
2022/01/01 11:20:17;;;;;;;8.13;2.05;;;;;;;13.15;71.00;100006.56;4972025;28;20097;-55
2022/01/01 11:22:46;;;;;;;13.77;2.97;;;;;;;13.08;71.29;100024.81;4965862;28;20102;-58
2022/01/01 11:25:13;;;;;;;12.15;2.78;;;;;;;13.04;71.89;100028.34;4966778;28;20058;-57